Blaricum, Netherlands
Current Conditions -  °F | °C
As of 3:55 AM on Monday 24 Nov 2014 (Local Time) from EHAM Reporting Station
Broken Clouds Broken Clouds  
Wind Chill: 42°   Ceiling: 4200
Heat Index: 46°   Visibility: 6mi
Dew Point: 45°   Wind: 8mph
Humidity: 93%   Direction: 300°WNW
Pressure: 30.09"   Gusts: NA
Location:  52.27°N, 5.24°E
Report Text: EHAM 240255Z 30007KT 9999 FEW018 BKN042 08/07 Q1019 NOSIG
Loading
Personal Weather Stations






























Interactive Weather Map New forecast layout! Learn more

10-Day Weather Forecast

Advertisements
Track Severe Weather on mobile